Time;durP1;ratioP1;P1;durP2;ratioP2;P2;SDS_P1;SDS_P2;PMS_P1;PMS_P2;Temp;Humidity;BMP_temperature;BMP_pressure;BME280_temperature;BME280_humidity;BME280_pressure;Samples;Min_cycle;Max_cycle;Signal;HPM_P1;HPM_P2
2021/05/05 00:00:52;;;;;;;8.68;3.56;;;;;;;9.83;39.78;98944.39;326901;111;2517965;-72
2021/05/05 00:01:59;;;;;;;7.66;3.71;;;;;;;9.85;39.80;98941.49;333788;109;1962923;-72
2021/05/05 00:03:05;;;;;;;7.19;3.22;;;;;;;9.85;39.74;98941.49;363181;110;1961984;-72
2021/05/05 00:04:10;;;;;;;7.70;2.99;;;;;;;9.88;39.64;98944.56;364206;109;1961914;-73
2021/05/05 00:05:16;;;;;;;8.26;3.43;;;;;;;9.90;39.66;98938.96;371408;107;1961925;-73
2021/05/05 00:06:25;;;;;;;7.09;2.86;;;;;;;9.90;39.65;98934.39;366172;109;1962000;-72
2021/05/05 00:07:31;;;;;;;7.51;2.87;;;;;;;9.92;39.55;98942.25;319587;109;2866039;-72
2021/05/05 00:08:37;;;;;;;7.14;3.42;;;;;;;9.94;39.50;98939.34;340920;107;1963992;-72
2021/05/05 00:09:42;;;;;;;7.99;3.28;;;;;;;9.94;39.58;98934.77;342042;109;1962052;-72
2021/05/05 00:10:48;;;;;;;7.89;3.00;;;;;;;9.96;39.54;98935.38;364490;108;1962955;-73
2021/05/05 00:11:53;;;;;;;9.21;3.31;;;;;;;10.01;39.49;98942.82;367602;108;1960831;-72
2021/05/05 00:12:58;;;;;;;13.79;3.52;;;;;;;10.02;39.40;98944.46;357736;111;1962982;-72
2021/05/05 00:14:05;;;;;;;7.17;3.28;;;;;;;10.02;39.46;98937.19;370245;107;1961942;-71
2021/05/05 00:15:16;;;;;;;7.11;3.38;;;;;;;10.04;39.44;98940.50;370254;107;1963955;-72
2021/05/05 00:16:24;;;;;;;11.09;4.52;;;;;;;10.05;39.45;98941.31;363241;109;1961911;-72
2021/05/05 00:17:29;;;;;;;10.99;6.39;;;;;;;10.05;39.50;98938.62;364072;110;1964975;-72
2021/05/05 00:18:35;;;;;;;18.27;15.24;;;;;;;10.07;39.43;98926.56;366764;108;1961939;-72
2021/05/05 00:19:41;;;;;;;11.21;7.05;;;;;;;10.08;39.37;98927.37;346408;108;2253943;-72
2021/05/05 00:20:48;;;;;;;9.99;6.17;;;;;;;10.08;39.36;98938.17;364914;109;1961912;-72
2021/05/05 00:21:53;;;;;;;10.82;7.57;;;;;;;10.12;39.29;98923.20;364920;109;1961893;-72
2021/05/05 00:22:59;;;;;;;10.09;5.96;;;;;;;10.13;39.27;98932.94;358167;111;1964912;-72
2021/05/05 00:24:06;;;;;;;7.79;4.41;;;;;;;10.14;39.23;98931.91;372314;107;1962003;-72
2021/05/05 00:25:12;;;;;;;8.96;5.96;;;;;;;10.16;39.16;98923.58;362082;108;1962021;-72
2021/05/05 00:26:20;;;;;;;6.76;3.68;;;;;;;10.16;39.18;98934.37;363924;108;1962010;-72
2021/05/05 00:27:26;;;;;;;7.87;3.91;;;;;;;10.15;39.16;98930.03;358111;110;2941922;-72
2021/05/05 00:28:31;;;;;;;9.13;4.08;;;;;;;10.15;39.18;98925.45;350612;112;1966114;-72
2021/05/05 00:29:36;;;;;;;6.77;3.68;;;;;;;10.15;39.23;98928.16;357859;111;1961962;-73
2021/05/05 00:30:44;;;;;;;7.16;3.52;;;;;;;10.13;39.26;98927.55;371433;107;1963938;-72
2021/05/05 00:31:50;;;;;;;7.59;3.78;;;;;;;10.13;39.26;98923.00;364067;107;2904916;-72
2021/05/05 00:32:56;;;;;;;9.93;4.06;;;;;;;10.11;39.29;98924.27;355075;107;1962031;-72
2021/05/05 00:34:02;;;;;;;7.89;3.53;;;;;;;10.10;39.32;98922.59;375249;107;1964011;-72
2021/05/05 00:35:09;;;;;;;9.04;3.97;;;;;;;10.09;39.32;98927.17;372266;107;1961891;-72
2021/05/05 00:36:15;;;;;;;8.24;3.16;;;;;;;10.09;39.34;98923.66;310305;107;2175655;-72
2021/05/05 00:37:20;;;;;;;10.29;3.54;;;;;;;10.08;39.35;98925.53;343112;107;1961947;-72
2021/05/05 00:38:26;;;;;;;7.31;3.43;;;;;;;10.07;39.38;98923.05;351517;109;1964908;-72
2021/05/05 00:39:31;;;;;;;7.63;3.61;;;;;;;10.07;39.35;98923.86;371130;108;1962060;-71
2021/05/05 00:40:37;;;;;;;8.02;3.25;;;;;;;10.07;39.40;98925.73;367553;107;1961927;-72
2021/05/05 00:41:42;;;;;;;10.47;3.76;;;;;;;10.07;39.36;98917.64;370060;107;1963000;-71
2021/05/05 00:42:47;;;;;;;7.23;3.38;;;;;;;10.06;39.41;98918.70;366592;108;1964012;-71
2021/05/05 00:43:53;;;;;;;6.63;3.43;;;;;;;10.02;39.49;98915.59;367413;108;1961944;-72
2021/05/05 00:45:03;;;;;;;7.33;3.50;;;;;;;9.99;39.53;98918.74;366794;110;1961950;-72
2021/05/05 00:46:09;;;;;;;7.58;3.22;;;;;;;9.96;39.56;98923.77;366338;109;1961938;-72
2021/05/05 00:47:16;;;;;;;5.96;3.23;;;;;;;9.95;39.56;98927.48;333448;113;2380946;-73
2021/05/05 00:48:23;;;;;;;7.05;3.19;;;;;;;9.91;39.62;98917.14;358134;111;1961994;-72
2021/05/05 00:49:29;;;;;;;7.74;3.15;;;;;;;9.90;39.71;98914.69;372190;107;1962085;-72
2021/05/05 00:50:35;;;;;;;6.45;2.74;;;;;;;9.87;39.76;98912.40;338993;109;2397138;-71
2021/05/05 00:51:40;;;;;;;7.37;2.76;;;;;;;9.85;39.73;98917.21;335623;108;1961992;-73
2021/05/05 00:52:46;;;;;;;7.73;3.14;;;;;;;9.82;39.78;98917.66;341555;108;1960831;-72
2021/05/05 00:53:51;;;;;;;6.23;2.88;;;;;;;9.80;39.81;98915.16;366023;109;1960922;-73
2021/05/05 00:54:56;;;;;;;7.93;3.03;;;;;;;9.80;39.80;98917.05;371929;109;1962990;-72
2021/05/05 00:56:03;;;;;;;7.03;2.62;;;;;;;9.78;39.82;98917.25;371192;108;1960912;-73
2021/05/05 00:57:12;;;;;;;8.71;3.48;;;;;;;9.77;39.88;98912.09;357545;108;2956850;-72
2021/05/05 00:58:19;;;;;;;9.88;3.03;;;;;;;9.76;39.86;98921.20;366893;109;1962011;-72
2021/05/05 00:59:26;;;;;;;8.94;3.62;;;;;;;9.75;39.87;98917.69;335675;108;2509881;-74
2021/05/05 01:00:32;;;;;;;8.23;3.46;;;;;;;9.74;39.92;98926.84;368415;108;1964062;-72
2021/05/05 01:01:40;;;;;;;6.61;3.00;;;;;;;9.72;39.95;98918.14;365802;110;1961943;-72
2021/05/05 01:02:47;;;;;;;6.89;3.16;;;;;;;9.72;39.89;98917.31;362839;110;1961913;-72
2021/05/05 01:03:53;;;;;;;7.09;2.83;;;;;;;9.74;39.83;98909.80;357011;112;1961967;-72
2021/05/05 01:05:00;;;;;;;6.57;3.76;;;;;;;9.74;39.81;98917.90;310814;110;2237911;-71
2021/05/05 01:06:06;;;;;;;7.26;2.91;;;;;;;9.73;39.89;98908.98;369314;108;1961930;-72
2021/05/05 01:07:12;;;;;;;8.66;2.83;;;;;;;9.72;39.89;98909.22;367575;108;1961994;-72
2021/05/05 01:08:21;;;;;;;6.60;2.98;;;;;;;9.72;39.91;98912.74;366734;109;1961961;-72
2021/05/05 01:09:27;;;;;;;6.86;3.14;;;;;;;9.72;39.88;98912.74;366034;108;1964899;-72
2021/05/05 01:10:35;;;;;;;7.23;2.90;;;;;;;9.73;39.89;98908.16;334221;110;2520100;-73
2021/05/05 01:11:42;;;;;;;5.77;2.85;;;;;;;9.71;39.90;98907.55;366440;108;1962978;-72
2021/05/05 01:12:49;;;;;;;6.97;3.12;;;;;;;9.70;39.92;98909.42;323312;109;2744934;-71
2021/05/05 01:13:54;;;;;;;8.27;3.41;;;;;;;9.68;39.98;98906.12;341089;110;1961939;-72
2021/05/05 01:15:00;;;;;;;6.05;2.72;;;;;;;9.68;40.04;98914.20;361618;110;1962923;-72
2021/05/05 01:16:05;;;;;;;8.41;2.94;;;;;;;9.66;40.00;98902.84;367322;109;1962015;-71
2021/05/05 01:17:11;;;;;;;6.24;2.49;;;;;;;9.66;40.01;98908.23;366022;110;1961958;-73
2021/05/05 01:18:19;;;;;;;7.09;2.54;;;;;;;9.65;40.04;98911.95;316767;110;2861932;-72
2021/05/05 01:19:24;;;;;;;7.85;3.00;;;;;;;9.63;40.12;98904.10;350766;110;1960932;-71
2021/05/05 01:20:38;;;;;;;7.35;3.14;;;;;;;9.63;40.12;98911.34;367120;109;1961947;-73
2021/05/05 01:21:44;;;;;;;8.42;3.07;;;;;;;9.64;40.21;98904.92;311242;108;2140926;-72
2021/05/05 01:22:56;;;;;;;7.06;2.69;;;;;;;9.63;40.20;98897.86;363414;109;1961982;-72
2021/05/05 01:24:02;;;;;;;7.78;2.72;;;;;;;9.62;40.24;98897.03;367828;109;1962051;-73
2021/05/05 01:25:11;;;;;;;5.70;2.61;;;;;;;9.59;40.32;98904.75;365470;108;1961937;-72
2021/05/05 01:26:17;;;;;;;8.69;2.95;;;;;;;9.57;40.41;98898.73;367710;109;1961921;-72
2021/05/05 01:27:23;;;;;;;7.61;2.76;;;;;;;9.57;40.49;98904.13;333681;110;2512963;-72
2021/05/05 01:28:29;;;;;;;8.81;3.27;;;;;;;9.57;40.48;98896.05;336833;110;1960985;-72
2021/05/05 01:29:36;;;;;;;6.74;3.22;;;;;;;9.55;40.67;98892.73;363205;110;1962003;-72
2021/05/05 01:30:45;;;;;;;7.71;3.33;;;;;;;9.57;40.61;98898.73;334301;110;2879015;-73
2021/05/05 01:31:50;;;;;;;7.92;3.20;;;;;;;9.55;40.64;98898.13;367066;108;1962006;-72
2021/05/05 01:32:55;;;;;;;6.52;3.18;;;;;;;9.53;40.69;98894.84;362303;112;1961883;-72
2021/05/05 01:34:02;;;;;;;7.64;3.36;;;;;;;9.51;40.74;98894.23;368006;108;1962026;-72
2021/05/05 01:35:11;;;;;;;7.48;3.37;;;;;;;9.51;40.79;98889.66;332380;110;1961890;-72
2021/05/05 01:36:20;;;;;;;8.58;3.47;;;;;;;9.53;40.81;98897.54;366653;109;1960998;-72
2021/05/05 01:37:26;;;;;;;6.81;3.39;;;;;;;9.54;40.76;98893.79;362205;112;1963984;-71
2021/05/05 01:38:32;;;;;;;8.22;3.07;;;;;;;9.55;40.78;98887.34;367513;108;1962042;-72
2021/05/05 01:39:39;;;;;;;7.30;2.91;;;;;;;9.54;40.81;98893.79;307715;109;2150217;-72
2021/05/05 01:40:45;;;;;;;9.78;3.90;;;;;;;9.53;40.84;98895.66;364354;110;1961963;-71
2021/05/05 01:41:50;;;;;;;8.29;3.08;;;;;;;9.55;40.92;98893.58;361440;110;1962025;-73
2021/05/05 01:42:58;;;;;;;6.02;2.85;;;;;;;9.56;40.89;98891.70;362419;110;1962082;-72
2021/05/05 01:44:05;;;;;;;9.52;3.12;;;;;;;9.57;40.91;98888.77;369097;108;1961958;-72
2021/05/05 01:45:11;;;;;;;6.04;3.14;;;;;;;9.59;40.93;98886.69;368792;110;1961954;-72
2021/05/05 01:46:20;;;;;;;5.79;3.56;;;;;;;9.59;40.99;98883.17;340245;110;1965033;-72
2021/05/05 01:47:26;;;;;;;7.21;2.64;;;;;;;9.61;40.91;98881.91;363245;112;1962931;-71
2021/05/05 01:48:32;;;;;;;7.44;3.48;;;;;;;9.62;40.92;98880.03;314083;110;2809961;-72
2021/05/05 01:49:43;;;;;;;8.09;2.98;;;;;;;9.62;40.96;98886.25;364565;110;1961949;-71
2021/05/05 01:50:49;;;;;;;8.47;3.78;;;;;;;9.61;41.01;98873.00;367602;109;1961958;-72
2021/05/05 01:51:59;;;;;;;5.85;3.06;;;;;;;9.61;41.04;98876.52;363719;112;1961889;-72
2021/05/05 01:53:05;;;;;;;7.19;3.27;;;;;;;9.61;41.08;98879.22;363899;112;1961948;-72
2021/05/05 01:54:12;;;;;;;8.60;3.79;;;;;;;9.62;41.09;98882.73;353800;111;1961944;-72
2021/05/05 01:55:18;;;;;;;6.18;3.49;;;;;;;9.62;41.15;98885.43;356999;112;1963824;-71
2021/05/05 01:56:24;;;;;;;7.43;3.16;;;;;;;9.60;41.18;98879.42;358201;111;1964997;-73
2021/05/05 01:57:37;;;;;;;9.98;2.75;;;;;;;9.59;41.26;98881.30;356922;113;1961996;-72
2021/05/05 01:58:44;;;;;;;7.14;3.32;;;;;;;9.60;41.24;98882.94;357587;110;1961969;-72
2021/05/05 01:59:53;;;;;;;7.43;3.61;;;;;;;9.58;41.30;98885.05;358247;111;1963079;-72
2021/05/05 02:01:00;;;;;;;9.14;3.36;;;;;;;9.60;41.31;98887.52;352492;113;1961049;-72
2021/05/05 02:02:06;;;;;;;10.51;3.31;;;;;;;9.58;41.38;98879.66;315134;110;2233950;-73
2021/05/05 02:03:12;;;;;;;5.61;3.40;;;;;;;9.58;41.38;98882.36;341669;110;1962025;-72
2021/05/05 02:04:19;;;;;;;7.55;2.94;;;;;;;9.60;41.35;98885.64;363506;110;1962936;-72
2021/05/05 02:05:29;;;;;;;6.83;2.96;;;;;;;9.61;41.39;98886.48;359822;112;1961995;-71
2021/05/05 02:06:41;;;;;;;5.92;3.05;;;;;;;9.62;41.37;98888.95;324377;112;1962054;-72
2021/05/05 02:07:49;;;;;;;4.45;2.67;;;;;;;9.64;41.36;98884.17;359007;111;1961967;-73
2021/05/05 02:08:57;;;;;;;6.28;2.99;;;;;;;9.65;41.37;98880.41;358878;113;1962018;-71
2021/05/05 02:10:06;;;;;;;7.54;3.39;;;;;;;9.68;41.35;98884.55;359541;110;1962041;-72
2021/05/05 02:11:11;;;;;;;5.54;3.06;;;;;;;9.67;41.37;98889.12;314808;113;2037157;-72
2021/05/05 02:12:17;;;;;;;6.89;3.28;;;;;;;9.69;41.30;98878.95;336220;111;1961930;-72
2021/05/05 02:13:25;;;;;;;8.34;3.66;;;;;;;9.69;41.30;98873.55;352375;115;1963988;-71
2021/05/05 02:14:31;;;;;;;7.88;3.01;;;;;;;9.68;41.37;98871.06;291557;115;2207409;-72
2021/05/05 02:15:36;;;;;;;7.86;3.02;;;;;;;9.70;41.30;98874.38;327041;116;1962054;-71
2021/05/05 02:16:43;;;;;;;7.53;3.02;;;;;;;9.71;41.28;98876.01;350259;114;1961905;-72
2021/05/05 02:17:50;;;;;;;6.81;3.39;;;;;;;9.70;41.32;98874.38;360384;110;1962071;-71
2021/05/05 02:18:56;;;;;;;6.61;3.26;;;;;;;9.71;41.32;98876.01;344614;113;1961930;-73
2021/05/05 02:20:05;;;;;;;8.51;2.98;;;;;;;9.72;41.24;98866.89;356387;113;1961966;-73
2021/05/05 02:21:11;;;;;;;5.52;2.87;;;;;;;9.74;41.22;98867.51;295806;113;2193160;-72
2021/05/05 02:22:17;;;;;;;10.96;4.37;;;;;;;9.75;41.19;98866.45;353563;112;1963930;-71
2021/05/05 02:23:22;;;;;;;10.37;4.82;;;;;;;9.74;41.26;98870.20;354043;114;1962030;-72
2021/05/05 02:24:28;;;;;;;10.56;4.17;;;;;;;9.77;41.17;98869.76;360253;111;1961054;-73
2021/05/05 02:25:35;;;;;;;8.74;4.36;;;;;;;9.75;41.26;98861.05;332257;108;2562779;-72
2021/05/05 02:26:49;;;;;;;10.54;4.36;;;;;;;9.74;41.29;98864.81;357073;111;1960685;-72
2021/05/05 02:27:55;;;;;;;11.14;4.69;;;;;;;9.72;41.42;98868.77;352628;108;1960740;-72
2021/05/05 02:29:03;;;;;;;11.99;5.03;;;;;;;9.71;41.47;98869.80;354092;114;1960847;-72
2021/05/05 02:30:12;;;;;;;11.92;4.96;;;;;;;9.70;41.50;98860.89;318040;112;1962663;-71
2021/05/05 02:31:25;;;;;;;12.65;4.42;;;;;;;9.68;41.62;98862.97;352678;111;1960767;-72
2021/05/05 02:32:31;;;;;;;13.55;5.66;;;;;;;9.65;41.69;98863.41;337328;110;1960858;-73
2021/05/05 02:33:36;;;;;;;11.85;4.12;;;;;;;9.64;41.68;98856.38;354438;115;1960793;-72
2021/05/05 02:34:44;;;;;;;11.07;5.18;;;;;;;9.63;41.85;98870.89;354544;112;1960856;-72
2021/05/05 02:35:50;;;;;;;12.36;5.74;;;;;;;9.60;41.84;98866.77;314701;111;2773716;-72
2021/05/05 02:36:56;;;;;;;10.74;5.07;;;;;;;9.59;42.01;98872.39;353173;110;1960827;-72
2021/05/05 02:38:02;;;;;;;9.81;5.18;;;;;;;9.60;42.00;98871.33;360146;112;1961671;-72
2021/05/05 02:39:09;;;;;;;10.69;4.14;;;;;;;9.60;42.12;98871.33;354535;113;1960872;-73
2021/05/05 02:40:15;;;;;;;10.84;5.35;;;;;;;9.59;42.18;98867.00;299118;112;2141158;-72
2021/05/05 02:41:21;;;;;;;13.02;5.04;;;;;;;9.59;42.19;98867.00;360297;111;1960826;-73
2021/05/05 02:42:26;;;;;;;9.77;4.98;;;;;;;9.57;42.29;98858.30;359803;111;1960848;-72
2021/05/05 02:43:32;;;;;;;10.93;5.16;;;;;;;9.56;42.42;98862.87;359800;109;1960819;-72
2021/05/05 02:44:39;;;;;;;8.12;4.34;;;;;;;9.54;42.45;98866.83;367668;110;1961072;-72
2021/05/05 02:45:45;;;;;;;10.71;5.88;;;;;;;9.52;42.46;98858.95;317560;110;2863884;-72
2021/05/05 02:46:52;;;;;;;9.12;4.72;;;;;;;9.51;42.51;98865.39;337633;112;1960994;-73
2021/05/05 02:48:12;;;;;;;10.32;4.63;;;;;;;9.51;42.64;98860.00;354852;112;1962986;-72
2021/05/05 02:49:18;;;;;;;8.23;4.02;;;;;;;9.49;42.76;98856.69;364115;110;1961957;-73
2021/05/05 02:50:25;;;;;;;12.39;3.24;;;;;;;9.51;42.79;98856.48;364125;111;1961984;-72
2021/05/05 02:51:31;;;;;;;8.63;3.82;;;;;;;9.52;42.97;98852.73;359759;108;1962169;-73
2021/05/05 02:52:36;;;;;;;7.58;3.54;;;;;;;9.52;42.93;98856.25;357257;110;1961977;-72
2021/05/05 02:53:42;;;;;;;7.22;3.51;;;;;;;9.54;42.99;98853.34;351261;115;1963007;-73
2021/05/05 02:54:49;;;;;;;7.51;3.81;;;;;;;9.53;42.99;98855.22;326220;113;2880978;-74
2021/05/05 02:55:55;;;;;;;7.04;3.61;;;;;;;9.55;42.99;98863.08;345955;113;1962027;-73
2021/05/05 02:57:01;;;;;;;7.13;3.79;;;;;;;9.53;43.07;98854.41;344870;116;1961996;-72
2021/05/05 02:58:06;;;;;;;7.62;3.81;;;;;;;9.55;43.18;98849.59;348674;115;1962912;-73
2021/05/05 02:59:12;;;;;;;8.47;3.89;;;;;;;9.55;43.28;98858.53;350328;114;1964999;-72
2021/05/05 03:00:20;;;;;;;8.54;3.61;;;;;;;9.57;43.30;98845.64;336493;113;2269966;-72
2021/05/05 03:01:25;;;;;;;7.02;3.98;;;;;;;9.59;43.40;98856.22;361500;111;1962022;-72
2021/05/05 03:02:31;;;;;;;6.74;3.72;;;;;;;9.58;43.48;98847.30;356800;113;1962037;-72
2021/05/05 03:03:36;;;;;;;8.33;4.38;;;;;;;9.60;43.52;98847.06;360418;111;1961957;-72
2021/05/05 03:04:41;;;;;;;7.96;4.56;;;;;;;9.61;43.53;98846.86;355996;113;1962070;-72
2021/05/05 03:05:48;;;;;;;8.26;4.72;;;;;;;9.61;43.56;98848.73;355764;113;1961945;-73
2021/05/05 03:06:55;;;;;;;8.11;4.76;;;;;;;9.62;43.69;98844.98;324842;110;2655970;-71
2021/05/05 03:08:00;;;;;;;8.08;4.31;;;;;;;9.63;43.68;98844.78;359662;111;1961987;-72
2021/05/05 03:09:06;;;;;;;8.94;5.14;;;;;;;9.65;43.79;98849.94;357265;112;1961960;-73
2021/05/05 03:10:12;;;;;;;7.45;4.10;;;;;;;9.66;43.82;98838.12;362373;110;1961858;-73
2021/05/05 03:11:18;;;;;;;9.24;4.96;;;;;;;9.67;43.90;98845.97;336169;113;2904098;-72
2021/05/05 03:12:24;;;;;;;8.49;4.26;;;;;;;9.71;44.04;98850.92;322530;113;1964025;-72
2021/05/05 03:13:29;;;;;;;7.64;4.54;;;;;;;9.71;44.07;98843.65;335547;113;1962001;-73
2021/05/05 03:14:34;;;;;;;8.68;4.20;;;;;;;9.73;44.18;98841.56;357358;113;1961971;-72
2021/05/05 03:15:40;;;;;;;7.83;3.67;;;;;;;9.79;44.13;98845.25;358975;111;1961967;-72
2021/05/05 03:16:47;;;;;;;7.95;3.76;;;;;;;9.79;44.11;98835.30;356111;113;1962938;-72
2021/05/05 03:17:53;;;;;;;7.74;3.79;;;;;;;9.82;44.16;98839.44;329161;111;2488034;-72
2021/05/05 03:18:59;;;;;;;7.01;3.76;;;;;;;9.84;44.17;98838.17;354935;113;1961895;-72
2021/05/05 03:20:07;;;;;;;9.95;3.58;;;;;;;9.87;44.17;98845.81;360835;111;1964065;-72
2021/05/05 03:21:13;;;;;;;7.26;3.54;;;;;;;9.89;44.21;98843.70;310997;112;2815011;-73
2021/05/05 03:22:19;;;;;;;6.76;3.53;;;;;;;9.91;44.18;98841.61;328574;109;1961970;-73
2021/05/05 03:23:26;;;;;;;7.58;3.63;;;;;;;9.93;44.24;98840.58;360373;111;1962021;-73
2021/05/05 03:24:32;;;;;;;7.61;3.60;;;;;;;9.94;44.25;98834.95;357229;112;1962961;-72
2021/05/05 03:25:40;;;;;;;8.98;3.79;;;;;;;9.98;44.23;98841.56;333739;110;2375984;-72
2021/05/05 03:26:45;;;;;;;6.49;3.74;;;;;;;10.01;44.21;98845.69;365525;107;1964046;-73
2021/05/05 03:27:51;;;;;;;9.22;3.62;;;;;;;10.04;44.19;98840.66;361825;111;1961009;-73
2021/05/05 03:28:56;;;;;;;9.89;4.45;;;;;;;10.04;44.34;98843.36;356246;112;1963979;-72
2021/05/05 03:30:05;;;;;;;8.13;3.88;;;;;;;10.10;44.25;98836.24;314182;109;2861012;-73
2021/05/05 03:31:10;;;;;;;8.76;3.71;;;;;;;10.13;44.25;98838.48;357715;112;1964000;-72
2021/05/05 03:32:16;;;;;;;7.44;3.79;;;;;;;10.16;44.23;98840.77;365814;107;1961980;-72
2021/05/05 03:33:22;;;;;;;9.30;4.74;;;;;;;10.18;44.23;98837.83;316642;112;2682045;-72
2021/05/05 03:34:27;;;;;;;8.88;3.63;;;;;;;10.19;44.23;98840.31;328775;110;1962019;-73
2021/05/05 03:35:33;;;;;;;8.21;3.84;;;;;;;10.21;44.31;98835.50;346342;110;1961922;-73
2021/05/05 03:36:40;;;;;;;7.27;3.99;;;;;;;10.23;44.33;98841.50;365502;106;1961929;-72
2021/05/05 03:37:46;;;;;;;9.34;3.74;;;;;;;10.28;44.25;98844.39;367789;108;1963907;-74
2021/05/05 03:38:52;;;;;;;8.14;3.76;;;;;;;10.31;44.25;98843.12;323898;109;2757917;-73
2021/05/05 03:40:09;;;;;;;7.88;4.01;;;;;;;10.33;44.22;98839.14;340527;108;1961925;-72
2021/05/05 03:41:15;;;;;;;7.72;3.64;;;;;;;10.36;44.22;98845.16;361245;110;1964116;-73
2021/05/05 03:42:21;;;;;;;8.58;3.69;;;;;;;10.39;44.20;98839.30;356343;109;1960777;-72
2021/05/05 03:43:27;;;;;;;8.31;3.86;;;;;;;10.43;44.12;98843.21;313691;113;2649932;-72
2021/05/05 03:44:33;;;;;;;6.72;3.59;;;;;;;10.46;44.15;98838.17;325638;112;1962995;-72
2021/05/05 03:45:39;;;;;;;8.48;4.27;;;;;;;10.49;44.16;98845.00;349556;113;1961987;-73
2021/05/05 03:46:45;;;;;;;7.99;3.32;;;;;;;10.51;44.15;98842.91;355243;114;1962036;-73
2021/05/05 03:47:51;;;;;;;8.82;4.19;;;;;;;10.55;44.13;98844.09;345896;114;1961967;-72
2021/05/05 03:48:57;;;;;;;7.54;3.50;;;;;;;10.59;44.10;98845.30;303299;116;2810063;-72
2021/05/05 03:50:04;;;;;;;9.36;4.12;;;;;;;10.62;44.07;98836.73;317685;115;1962030;-72
2021/05/05 03:51:13;;;;;;;8.52;3.61;;;;;;;10.65;44.00;98833.58;351644;114;1962059;-73
2021/05/05 03:52:19;;;;;;;6.92;4.28;;;;;;;10.70;43.92;98839.12;344192;116;1962972;-72
2021/05/05 03:53:25;;;;;;;10.78;4.06;;;;;;;10.73;43.88;98838.67;347384;116;1961947;-72
2021/05/05 03:54:31;;;;;;;6.91;3.17;;;;;;;10.77;43.86;98836.36;352411;107;1960843;-72
2021/05/05 03:55:37;;;;;;;9.23;3.97;;;;;;;10.78;43.79;98841.52;308707;113;2751936;-73
2021/05/05 03:56:55;;;;;;;8.26;4.72;;;;;;;10.84;43.70;98841.66;348462;114;1961993;-73
2021/05/05 03:58:01;;;;;;;9.48;4.06;;;;;;;10.88;43.64;98840.98;350025;115;1963935;-73
2021/05/05 03:59:06;;;;;;;8.69;4.35;;;;;;;10.91;43.60;98840.52;325292;113;2402935;-72
2021/05/05 04:00:14;;;;;;;8.63;4.49;;;;;;;10.94;43.52;98831.14;351123;113;1963974;-73
2021/05/05 04:01:20;;;;;;;8.98;4.83;;;;;;;10.97;43.49;98830.67;345853;115;1962937;-72
2021/05/05 04:02:27;;;;;;;9.79;4.82;;;;;;;10.99;43.46;98837.50;305936;114;2766963;-72
2021/05/05 04:03:32;;;;;;;8.88;4.71;;;;;;;11.03;43.38;98837.03;324563;119;1961996;-73
2021/05/05 04:04:37;;;;;;;11.44;4.99;;;;;;;11.07;43.31;98835.54;345397;112;1961974;-73
2021/05/05 04:05:43;;;;;;;10.88;5.01;;;;;;;11.11;43.23;98836.72;354513;112;1962010;-73
2021/05/05 04:06:48;;;;;;;8.86;4.37;;;;;;;11.14;43.21;98834.39;356630;108;1962167;-72
2021/05/05 04:07:54;;;;;;;9.73;4.53;;;;;;;11.18;43.13;98830.16;356270;111;1962927;-72
2021/05/05 04:08:59;;;;;;;10.31;4.36;;;;;;;11.23;43.08;98826.77;349235;116;1961988;-73
2021/05/05 04:10:07;;;;;;;6.96;3.64;;;;;;;11.28;43.01;98834.20;355375;112;1961913;-73
2021/05/05 04:11:12;;;;;;;8.15;4.41;;;;;;;11.31;42.83;98833.73;355887;112;1961989;-72
2021/05/05 04:12:18;;;;;;;11.61;4.06;;;;;;;11.38;42.75;98831.77;354987;112;1962034;-72
2021/05/05 04:13:23;;;;;;;6.88;3.99;;;;;;;11.43;42.70;98827.30;354188;112;1960988;-73
2021/05/05 04:14:46;;;;;;;6.28;3.21;;;;;;;11.49;42.56;98833.66;315695;109;1960819;-72
2021/05/05 04:16:11;;;;;;;10.08;3.43;;;;;;;11.56;42.29;98825.42;353656;112;1964999;-72
2021/05/05 04:17:36;;;;;;;10.34;3.73;;;;;;;11.64;42.28;98831.34;353863;112;1962024;-73
2021/05/05 04:19:00;;;;;;;8.79;4.27;;;;;;;11.71;42.22;98830.39;344484;115;1961915;-72
2021/05/05 04:20:26;;;;;;;9.23;4.74;;;;;;;11.77;42.09;98826.74;344431;115;1961995;-73
2021/05/05 04:21:50;;;;;;;8.47;4.58;;;;;;;11.84;41.96;98827.47;345444;115;1962094;-72
2021/05/05 04:23:14;;;;;;;7.66;3.62;;;;;;;11.92;41.80;98829.03;345871;117;1961931;-73
2021/05/05 04:24:25;;;;;;;7.99;3.94;;;;;;;11.98;41.67;98823.48;350090;107;1962210;-74
2021/05/05 04:25:31;;;;;;;9.63;4.51;;;;;;;12.07;41.63;98837.51;306309;112;2787029;-73
2021/05/05 04:26:38;;;;;;;10.31;4.07;;;;;;;12.12;41.51;98824.09;360531;110;1961976;-73
2021/05/05 04:27:44;;;;;;;9.12;3.91;;;;;;;12.16;41.46;98825.25;355924;110;1962964;-72
2021/05/05 04:28:50;;;;;;;7.22;3.72;;;;;;;12.23;41.24;98825.14;362244;111;1961882;-73
2021/05/05 04:29:56;;;;;;;10.49;4.81;;;;;;;12.28;41.10;98817.95;313613;110;2809004;-73
2021/05/05 04:31:02;;;;;;;6.29;3.49;;;;;;;12.37;41.04;98810.27;340151;110;1964044;-73
2021/05/05 04:32:10;;;;;;;9.78;4.66;;;;;;;12.42;40.83;98818.50;361189;110;1962011;-73
2021/05/05 04:33:16;;;;;;;9.20;4.59;;;;;;;12.48;40.81;98814.83;310018;110;2865001;-73
2021/05/05 04:34:22;;;;;;;9.62;4.19;;;;;;;12.56;40.72;98818.23;346297;110;1961936;-73
2021/05/05 04:35:28;;;;;;;10.34;3.97;;;;;;;12.61;40.65;98807.50;359131;110;1961017;-74
2021/05/05 04:36:33;;;;;;;6.63;3.76;;;;;;;12.64;40.58;98810.55;360189;110;1961889;-73
2021/05/05 04:37:39;;;;;;;10.02;3.82;;;;;;;12.69;40.39;98801.70;359226;110;1961956;-73
2021/05/05 04:38:45;;;;;;;7.67;3.86;;;;;;;12.74;40.40;98809.94;359735;110;1961982;-73
2021/05/05 04:39:51;;;;;;;7.88;4.00;;;;;;;12.78;40.36;98811.12;311105;110;2811941;-73
2021/05/05 04:40:57;;;;;;;10.38;3.83;;;;;;;12.80;40.36;98808.97;341554;112;1962002;-73
2021/05/05 04:42:04;;;;;;;9.84;3.62;;;;;;;12.85;40.34;98805.53;360482;110;1962033;-73
2021/05/05 04:43:10;;;;;;;11.79;4.65;;;;;;;12.90;40.34;98803.74;362321;110;1963747;-73
2021/05/05 04:44:17;;;;;;;10.67;4.53;;;;;;;12.93;40.28;98802.44;329049;111;2902855;-73
2021/05/05 04:45:22;;;;;;;9.04;4.88;;;;;;;12.96;40.24;98794.63;356378;112;1962021;-73
2021/05/05 04:46:29;;;;;;;10.19;4.67;;;;;;;13.01;40.10;98804.75;365262;109;1961883;-73
2021/05/05 04:47:45;;;;;;;7.96;4.04;;;;;;;13.05;40.07;98795.08;363745;109;1962084;-73
2021/05/05 04:48:50;;;;;;;8.81;4.50;;;;;;;13.11;40.01;98798.70;353637;113;1962032;-74
2021/05/05 04:49:57;;;;;;;10.73;4.83;;;;;;;13.12;39.87;98793.02;304095;115;2889970;-73
2021/05/05 04:51:04;;;;;;;10.21;4.84;;;;;;;13.17;39.71;98801.25;350103;112;1965012;-73
2021/05/05 04:52:09;;;;;;;9.28;4.35;;;;;;;13.22;39.68;98802.42;350791;115;1964026;-74
2021/05/05 04:53:14;;;;;;;10.99;4.22;;;;;;;13.25;39.67;98793.79;351678;112;1965010;-73
2021/05/05 04:54:20;;;;;;;8.28;4.36;;;;;;;13.28;39.55;98791.43;354554;114;1965008;-72
2021/05/05 04:55:26;;;;;;;9.26;4.02;;;;;;;13.33;39.48;98791.52;354325;112;1961971;-73
2021/05/05 04:56:32;;;;;;;6.29;3.56;;;;;;;13.40;39.42;98804.94;325431;114;1962009;-73
2021/05/05 04:57:39;;;;;;;11.24;4.47;;;;;;;13.46;39.37;98794.99;355561;112;1960675;-74
2021/05/05 04:58:44;;;;;;;15.26;4.54;;;;;;;13.49;39.31;98802.63;355082;114;1961917;-74
2021/05/05 04:59:49;;;;;;;7.79;4.42;;;;;;;13.54;39.26;98789.97;353634;114;1961973;-74
2021/05/05 05:00:55;;;;;;;7.66;3.45;;;;;;;13.58;39.03;98790.31;350082;114;1961912;-73
2021/05/05 05:02:00;;;;;;;7.63;3.47;;;;;;;13.64;39.09;98792.85;357808;112;1961898;-74
2021/05/05 05:03:07;;;;;;;8.59;3.59;;;;;;;13.68;38.94;98785.05;286640;113;2254819;-74
2021/05/05 05:04:13;;;;;;;7.37;3.52;;;;;;;13.73;38.90;98787.00;334809;114;1963946;-75
2021/05/05 05:05:18;;;;;;;8.30;3.31;;;;;;;13.78;38.87;98789.80;339451;114;1960943;-74
2021/05/05 05:06:24;;;;;;;8.21;3.54;;;;;;;13.81;38.84;98794.73;354734;112;1962915;-73
2021/05/05 05:07:30;;;;;;;11.59;3.78;;;;;;;13.85;38.83;98790.45;354161;109;1960773;-73
2021/05/05 05:08:35;;;;;;;8.86;3.56;;;;;;;13.89;38.84;98785.34;351415;113;1961981;-72
2021/05/05 05:09:40;;;;;;;7.18;3.61;;;;;;;13.93;38.74;98784.61;350092;112;1961977;-73